首页
METAR-TAF:

METAR-TAF

机场 :

雷西斯滕西亚, 阿根廷

纬度: 27-27S, 经度: 059-03W, 海拔: 53米

当前天气观测

该预报发布于51分钟前的04:00 UTC
风速2节,风向多变
温度 12°C
湿度 82%
气压 1027 hPa
能见度10公里或以上
少量云层高于2100英尺
阴天层高于3400英尺

METAR: SARE 150400Z VRB02KT 9999 FEW021 OVC034 12/09 Q1027

时间: 01:51 (04:51 UTC)

预报

该预报发布于5小时和51分钟前的23:00 UTC
预报有效从15日的 00点(UTC)到 15日的 24点(UTC)
风速5节,风向南转南东
能见度10公里或以上
多云层高于3000英尺

TAF: SARE 142300Z 1500/1524 16005KT 9999 BKN030 TX19/1518Z TN06/1510Z

超过4000个机场的气象观测和天气预报(METAR&TAF报告)。

可查询的气象台以黄色和红色小点在地图上表示。

将鼠标移到小点上方,可查看气象台名称。

然后点击查看天气观测和预报。

如需切换地图:点击带黑十字的绿色按钮放大地图;点击带横线的绿色按钮缩小地图;或者点击绿色箭头查看邻近地区的地图。


METAR-TAF: